Terminal Aerodrome Forecast
Issued by NWS

Home | Current Version | Previous Version | Text Only | Print | Product List | Glossary Off
Versions: 1 2 3 4 5 6 7 8 9 10 11 12 13 14 15 16 17

162
FTUS43 KIWX 181908 AAA
TAFSBN
TAF AMD
KSBN 181908Z 1819/1918 36018G26KT 5SM SHRA SCT008 OVC025
     FM182300 34022G32KT P6SM VCSH OVC015
     FM190300 32020G28KT P6SM VCSH OVC020
     FM191100 30013G21KT P6SM OVC025
     FM191600 29015G23KT P6SM OVC020=

USA.gov is the U.S. government's official web portal to all federal, state and local government web resources and services.